Butte, MT

6:18 PM MDT on September 22, 2014 (GMT -0600)
Mooney | Change Station
CLOSE
Current Station
Airport
Location: Butte,
Elevation: 5545 ft
Nearby Weather Stations

Elev 5545 ft 45.95 °N, 112.50 °W | Updated 25 minutes ago

Overcast
Overcast
66 °F
Feels Like 66 °F
N
4
Wind Variable Wind from WNW

Today
High -- | Low -- °F
--% Chance of Precip.
Yesterday
High -- | Low -- °F
Precip. -- in
7:17 AM 7:27 PM
Waning Crescent, 1% visible
Pressure 29.97 in
Visibility 10.0 miles
Clouds Clear
Dew Point 47 °F
Humidity 50%
Rainfall 0.00 in
Snow Depth 0 in , 0 in , 0 in
UV 1 out of 12
Pollen 5.60 out of 12
Air Quality Not available.
Flu Activity Not available.
METAR KBTM 222353Z AUTO 29003KT 10SM CLR 19/08 A3008 RMK AO2 SLP147 T01890083 10194 20167 56005

More Conditions Fewer Conditions

Pressure 29.97 in
Visibility 10.0 miles
Clouds Clear
Dew Point 47 °F
Humidity 50%
Rainfall 0.00 in
Snow Depth 0 in , 0 in , 0 in
UV 1 out of 12
Pollen 5.60 out of 12
Air Quality Not available.
Flu Activity Not available.
METAR KBTM 222353Z AUTO 29003KT 10SM CLR 19/08 A3008 RMK AO2 SLP147 T01890083 10194 20167 56005

More Conditions Fewer Conditions

10-Day Weather Forecast

Almanac

Astronomy

Sep. 22, 2014 Rise Set
Actual Time 7:17 AM MDT 7:27 PM MDT
Civil Twilight 6:47 AM MDT 7:57 PM MDT
Nautical Twilight 6:12 AM MDT 8:32 PM MDT
Astronomical Twilight 5:36 AM MDT 9:08 PM MDT
Moon 5:46 AM MDT (9/22) 6:38 PM MDT (9/22)
Length of Visible Light 13h 09m
Length of Day
12h 10m
Tomorrow will be 3m 13s shorter.
Waning Crescent, 1% of the Moon is Illuminated
Today
Waning Crescent
Sep 24
New
Oct 1
First Quarter
Oct 8
Full
Oct 15
Last Quarter

Today's Extremes

State Highs State Lows

Community

WunderPhotos

Upload Photos

1,755,562 photos uploaded!

Nearby

Snow Depth

Station Depth Elevation
Nevada Ridge 0 in 7020 ft
Brackett Creek 0 in 7320 ft
Sacajawea 0 in 6550 ft
Porcupine 1 in 6500 ft
Wood Creek 0 in 5960 ft

Earthquake Activity

City Distance Mag. Time & Date
No recent earthquake activity has been reported nearby.
Minimum magnitude displayed is 2.5.

Coastal Water Temperatures

Place Temperature
No Stations Reporting

Nearby Weather Stations